Time;durP1;ratioP1;P1;durP2;ratioP2;P2;SDS_P1;SDS_P2;PMS_P1;PMS_P2;Temp;Humidity;BMP_temperature;BMP_pressure;BME280_temperature;BME280_humidity;BME280_pressure;Samples;Min_cycle;Max_cycle;Signal;HPM_P1;HPM_P2
2023/03/18 00:01:21;;;;;;;4.20;3.23;;;;;;;14.34;49.87;98300.59;7055572;28;20624;-79
2023/03/18 00:04:43;;;;;;;6.17;4.00;;;;;;;14.42;49.64;98297.53;7056249;28;20202;-79
2023/03/18 00:08:05;;;;;;;7.53;3.67;;;;;;;14.30;49.32;98304.03;7061369;28;20575;-79
2023/03/18 00:11:29;;;;;;;5.43;3.47;;;;;;;14.36;49.16;98305.78;7058215;28;20233;-79
2023/03/18 00:14:51;;;;;;;7.20;3.73;;;;;;;13.92;50.39;98292.91;7053045;28;20217;-79
2023/03/18 00:18:13;;;;;;;4.67;3.20;;;;;;;14.14;49.86;98302.88;7056039;28;20325;-78
2023/03/18 00:21:34;;;;;;;7.93;3.60;;;;;;;13.81;50.97;98318.16;7055015;28;20597;-79
2023/03/18 00:24:56;;;;;;;5.03;3.70;;;;;;;13.71;51.73;98320.63;7054148;28;20615;-79
2023/03/18 00:28:19;;;;;;;7.20;3.60;;;;;;;13.60;51.51;98311.44;7055426;28;20314;-79
2023/03/18 00:31:40;;;;;;;5.33;3.73;;;;;;;13.10;53.41;98312.91;7054570;28;20280;-78
2023/03/18 00:35:02;;;;;;;5.87;3.97;;;;;;;13.75;51.73;98317.19;7055939;28;20257;-78
2023/03/18 00:38:24;;;;;;;7.00;4.20;;;;;;;13.45;51.70;98300.25;7055121;28;20211;-78
2023/03/18 00:41:46;;;;;;;6.17;3.60;;;;;;;13.57;51.79;98320.03;7054313;28;20220;-79
2023/03/18 00:45:10;;;;;;;5.77;4.20;;;;;;;13.48;51.61;98331.44;7054929;28;20698;-78
2023/03/18 00:48:32;;;;;;;4.87;3.93;;;;;;;13.19;52.19;98324.22;7054589;28;20209;-81
2023/03/18 00:51:53;;;;;;;7.93;4.60;;;;;;;13.46;51.97;98330.88;7053799;28;20233;-79
2023/03/18 00:55:15;;;;;;;5.37;3.80;;;;;;;13.12;52.76;98342.47;7055023;28;20720;-79
2023/03/18 00:58:36;;;;;;;5.13;3.80;;;;;;;13.44;52.01;98338.38;7054569;28;20659;-79
2023/03/18 01:01:59;;;;;;;6.47;3.97;;;;;;;13.52;52.17;98346.19;7054362;28;20730;-80
2023/03/18 01:05:21;;;;;;;4.53;3.70;;;;;;;13.76;51.39;98339.69;7054906;28;20211;-78
2023/03/18 01:08:43;;;;;;;9.50;4.23;;;;;;;13.88;50.61;98346.78;7054140;28;20231;-79
2023/03/18 01:12:06;;;;;;;6.10;3.77;;;;;;;13.14;52.50;98332.22;7055080;28;20319;-80
2023/03/18 01:15:28;;;;;;;4.60;3.40;;;;;;;13.33;51.11;98333.81;7056841;28;20333;-79
2023/03/18 01:18:52;;;;;;;5.17;3.90;;;;;;;13.05;51.42;98320.91;7055260;28;20206;-79
2023/03/18 01:22:14;;;;;;;4.03;3.57;;;;;;;13.47;51.04;98338.75;7052961;28;20270;-78
2023/03/18 01:25:36;;;;;;;4.40;3.60;;;;;;;13.66;50.38;98337.59;7052780;28;20656;-78
2023/03/18 01:28:58;;;;;;;6.80;3.70;;;;;;;13.38;50.76;98342.88;7054348;28;20189;-78
2023/03/18 01:32:20;;;;;;;3.83;3.27;;;;;;;13.19;51.08;98351.31;7052957;28;20239;-78
2023/03/18 01:35:45;;;;;;;6.53;3.57;;;;;;;13.16;51.87;98338.25;7053792;28;20731;-78
2023/03/18 01:39:07;;;;;;;6.53;3.40;;;;;;;12.78;52.05;98327.75;7053543;28;20353;-78
2023/03/18 01:42:29;;;;;;;6.80;3.90;;;;;;;13.30;51.35;98343.22;7052385;27;20567;-78
2023/03/18 01:45:52;;;;;;;7.50;3.73;;;;;;;13.04;51.71;98342.81;7079403;27;20200;-78
2023/03/18 01:49:16;;;;;;;4.40;3.27;;;;;;;12.87;51.74;98339.91;7081542;27;20638;-78
2023/03/18 01:52:39;;;;;;;4.83;3.90;;;;;;;12.15;53.92;98326.53;7078738;27;20271;-78
2023/03/18 01:56:01;;;;;;;6.17;3.80;;;;;;;13.13;51.80;98326.00;7080546;27;20294;-78
2023/03/18 01:59:26;;;;;;;4.00;3.60;;;;;;;12.56;52.61;98325.81;7081135;27;20243;-78
2023/03/18 02:02:48;;;;;;;5.50;4.17;;;;;;;12.89;51.80;98320.72;7078523;27;20234;-78
2023/03/18 02:06:11;;;;;;;5.00;3.60;;;;;;;12.99;51.07;98315.63;7080409;27;20616;-78
2023/03/18 02:09:34;;;;;;;4.47;3.60;;;;;;;12.99;51.44;98319.13;7080670;27;20761;-78
2023/03/18 02:12:59;;;;;;;5.03;3.50;;;;;;;12.68;52.28;98338.31;7080846;27;20321;-78
2023/03/18 02:16:24;;;;;;;7.37;3.30;;;;;;;12.39;52.20;98320.19;7080703;27;20205;-78
2023/03/18 02:19:57;;;;;;;5.03;3.37;;;;;;;13.08;50.92;98322.31;7080441;27;20235;-78
2023/03/18 02:23:25;;;;;;;4.50;3.07;;;;;;;13.38;50.19;98328.50;7082186;27;20641;-78
2023/03/18 02:26:53;;;;;;;5.53;3.40;;;;;;;13.17;50.56;98319.03;7080503;27;20198;-78
2023/03/18 02:30:19;;;;;;;4.77;3.20;;;;;;;12.92;51.43;98328.41;7079467;27;20203;-78
2023/03/18 02:33:41;;;;;;;4.97;3.20;;;;;;;12.71;52.12;98337.88;7080010;27;20234;-78
2023/03/18 02:37:03;;;;;;;9.00;5.90;;;;;;;12.83;51.69;98338.72;7080358;27;20211;-78
2023/03/18 02:40:26;;;;;;;4.83;3.53;;;;;;;12.75;52.37;98325.50;7079165;27;20703;-78
2023/03/18 02:43:49;;;;;;;4.63;3.40;;;;;;;12.93;51.21;98333.56;7080465;27;20200;-78
2023/03/18 02:47:14;;;;;;;4.40;3.80;;;;;;;12.78;51.21;98332.34;7080184;27;20205;-79
2023/03/18 02:50:35;;;;;;;4.60;2.80;;;;;;;13.33;50.04;98323.78;7079044;27;20207;-79
2023/03/18 02:54:00;;;;;;;4.70;3.23;;;;;;;13.54;48.49;98338.63;7079927;28;20238;-78
2023/03/18 02:57:22;;;;;;;3.77;3.00;;;;;;;13.04;50.55;98332.78;7079721;28;20383;-78
2023/03/18 03:00:43;;;;;;;4.30;3.60;;;;;;;12.77;51.99;98341.50;7079413;28;20225;-78
2023/03/18 03:04:07;;;;;;;6.00;4.10;;;;;;;13.02;51.51;98326.81;7078762;28;20200;-78
2023/03/18 03:07:29;;;;;;;4.63;3.97;;;;;;;13.13;51.16;98350.38;7079665;28;20235;-78
2023/03/18 03:10:51;;;;;;;5.70;3.93;;;;;;;13.10;51.35;98358.94;7078946;28;20243;-78
2023/03/18 03:14:13;;;;;;;6.53;4.27;;;;;;;12.40;53.60;98358.88;7079958;28;20218;-78
2023/03/18 03:17:35;;;;;;;4.50;4.10;;;;;;;12.04;53.02;98335.41;7080824;27;20275;-78
2023/03/18 03:20:58;;;;;;;5.90;4.10;;;;;;;13.01;51.01;98357.63;7084342;27;20238;-78
2023/03/18 03:24:21;;;;;;;4.67;4.27;;;;;;;12.26;52.56;98350.09;7085028;27;20200;-78
2023/03/18 03:27:42;;;;;;;6.07;4.47;;;;;;;13.05;51.17;98360.69;7085328;27;20582;-78
2023/03/18 03:31:05;;;;;;;4.90;4.33;;;;;;;13.05;51.09;98375.03;7084390;27;20227;-78
2023/03/18 03:34:27;;;;;;;7.97;4.40;;;;;;;12.83;52.04;98364.94;7085044;27;20209;-78
2023/03/18 03:37:50;;;;;;;5.10;4.60;;;;;;;12.49;51.99;98347.53;7084482;27;20662;-78
2023/03/18 03:41:14;;;;;;;7.93;5.07;;;;;;;12.35;53.01;98369.53;7083808;27;20318;-78
2023/03/18 03:44:36;;;;;;;9.90;6.10;;;;;;;12.36;53.69;98368.47;7079103;27;20232;-79
2023/03/18 03:47:57;;;;;;;7.93;5.03;;;;;;;13.03;51.12;98374.44;7084614;27;20208;-78
2023/03/18 03:51:19;;;;;;;4.93;4.43;;;;;;;12.23;52.82;98364.06;7083616;27;20669;-78
2023/03/18 03:54:42;;;;;;;5.67;4.57;;;;;;;12.61;52.50;98378.16;7084416;27;20199;-78
2023/03/18 03:58:03;;;;;;;6.63;4.57;;;;;;;12.18;53.25;98377.44;7084595;27;20741;-78
2023/03/18 04:01:26;;;;;;;7.27;4.70;;;;;;;12.57;52.47;98378.84;7082791;27;20622;-78
2023/03/18 04:04:47;;;;;;;4.73;3.87;;;;;;;12.45;52.88;98394.19;7082356;27;20199;-78
2023/03/18 04:08:09;;;;;;;5.67;4.33;;;;;;;12.45;52.24;98399.59;7084331;27;20352;-78
2023/03/18 04:11:31;;;;;;;4.90;4.40;;;;;;;12.39;52.83;98371.56;7082981;27;20704;-78
2023/03/18 04:14:53;;;;;;;4.87;4.10;;;;;;;12.20;53.19;98378.03;7083589;27;20207;-78
2023/03/18 04:18:15;;;;;;;6.60;4.57;;;;;;;12.28;53.46;98393.13;7084038;27;20938;-77
2023/03/18 04:21:37;;;;;;;7.33;4.93;;;;;;;12.51;53.18;98398.69;7083777;27;20311;-80
2023/03/18 04:24:59;;;;;;;5.63;4.20;;;;;;;12.26;53.46;98387.94;7083448;27;20248;-78
2023/03/18 04:28:22;;;;;;;5.67;4.10;;;;;;;11.88;54.05;98360.31;7083828;27;20207;-79
2023/03/18 04:31:43;;;;;;;5.17;4.00;;;;;;;12.42;53.28;98391.91;7083300;27;20274;-78
2023/03/18 04:35:06;;;;;;;7.80;4.93;;;;;;;12.30;53.33;98391.84;7089611;27;20351;-78
2023/03/18 04:38:27;;;;;;;6.57;4.40;;;;;;;11.81;54.26;98397.34;7084459;27;20199;-78
2023/03/18 04:41:49;;;;;;;6.50;4.10;;;;;;;11.98;53.68;98398.44;7082135;27;20224;-78
2023/03/18 04:45:12;;;;;;;6.40;4.80;;;;;;;12.00;53.44;98400.91;7082790;27;20265;-78
2023/03/18 04:48:34;;;;;;;7.77;4.30;;;;;;;12.12;53.45;98380.22;7083087;27;20211;-79
2023/03/18 04:51:56;;;;;;;9.70;5.27;;;;;;;12.27;53.37;98410.41;7081840;27;20450;-78
2023/03/18 04:55:19;;;;;;;9.17;5.90;;;;;;;12.10;52.68;98406.66;7082785;27;20204;-78
2023/03/18 04:58:40;;;;;;;10.03;5.83;;;;;;;12.31;52.43;98403.47;7083082;27;20199;-78
2023/03/18 05:02:04;;;;;;;5.23;4.50;;;;;;;11.87;53.16;98414.56;7081067;27;20227;-78
2023/03/18 05:05:25;;;;;;;7.53;4.70;;;;;;;11.58;53.72;98404.41;7082267;27;20199;-78
2023/03/18 05:08:46;;;;;;;4.27;3.83;;;;;;;11.47;54.09;98416.75;7082430;27;20799;-78
2023/03/18 05:12:12;;;;;;;4.63;3.43;;;;;;;12.05;52.07;98407.28;7081054;27;20227;-78
2023/03/18 05:15:34;;;;;;;4.40;3.60;;;;;;;12.31;51.25;98401.63;7081727;27;20188;-78
2023/03/18 05:18:57;;;;;;;5.57;4.77;;;;;;;12.11;51.91;98398.28;7081804;27;20698;-79
2023/03/18 05:22:20;;;;;;;4.97;3.60;;;;;;;12.11;51.88;98411.00;7079986;27;20314;-78
2023/03/18 05:25:42;;;;;;;4.07;3.10;;;;;;;11.89;52.08;98412.47;7084178;27;20669;-78
2023/03/18 05:29:03;;;;;;;5.63;3.70;;;;;;;11.68;52.17;98399.38;7083462;27;20340;-78
2023/03/18 05:32:25;;;;;;;4.03;3.13;;;;;;;11.71;52.16;98407.03;7079171;27;20238;-78
2023/03/18 05:35:48;;;;;;;5.40;4.13;;;;;;;11.90;52.27;98411.41;7081043;27;20187;-78
2023/03/18 05:39:09;;;;;;;5.50;3.33;;;;;;;11.65;52.41;98403.34;7081326;27;20203;-78
2023/03/18 05:42:32;;;;;;;6.13;3.23;;;;;;;11.90;51.57;98411.41;7080293;27;20272;-78
2023/03/18 05:45:53;;;;;;;6.93;3.57;;;;;;;11.95;51.03;98423.22;7061947;27;20216;-78
2023/03/18 05:49:15;;;;;;;6.57;2.93;;;;;;;11.96;51.36;98418.63;7052792;28;20211;-79
2023/03/18 05:52:38;;;;;;;5.77;2.77;;;;;;;11.44;52.81;98421.75;7072341;27;20314;-78
2023/03/18 05:55:59;;;;;;;4.87;2.90;;;;;;;11.68;52.30;98410.19;7080875;27;20316;-78
2023/03/18 05:59:22;;;;;;;6.17;3.60;;;;;;;11.73;52.33;98408.47;7080815;27;20233;-78
2023/03/18 06:02:45;;;;;;;5.50;3.23;;;;;;;11.52;51.45;98394.50;7078889;27;20219;-78
2023/03/18 06:06:07;;;;;;;5.57;3.53;;;;;;;11.69;51.20;98418.03;7080760;27;20188;-80
2023/03/18 06:09:32;;;;;;;4.67;3.00;;;;;;;11.56;51.62;98428.13;7081593;27;20252;-79
2023/03/18 06:12:54;;;;;;;5.40;3.23;;;;;;;11.47;52.29;98426.72;7080438;27;20274;-79
2023/03/18 06:16:16;;;;;;;8.73;3.37;;;;;;;11.46;52.03;98430.47;7081016;27;20200;-79
2023/03/18 06:19:38;;;;;;;4.33;2.93;;;;;;;11.14;52.73;98435.06;7080174;27;20203;-78
2023/03/18 06:23:00;;;;;;;5.53;3.60;;;;;;;11.30;51.59;98364.38;7078336;27;20221;-79
2023/03/18 06:26:23;;;;;;;7.30;3.10;;;;;;;11.54;51.77;98428.34;7080353;27;20184;-78
2023/03/18 06:29:44;;;;;;;7.73;4.50;;;;;;;11.60;51.93;98435.59;7081359;27;20304;-79
2023/03/18 06:33:06;;;;;;;3.57;2.90;;;;;;;11.93;50.90;98429.88;7080936;27;20272;-81
2023/03/18 06:36:27;;;;;;;3.27;2.93;;;;;;;11.93;51.22;98430.69;7080805;27;20328;-80
2023/03/18 06:39:49;;;;;;;3.33;3.03;;;;;;;11.68;51.83;98434.50;7079847;27;20294;-80
2023/03/18 06:43:12;;;;;;;3.93;2.80;;;;;;;11.75;51.34;98413.66;7080300;27;20223;-80
2023/03/18 06:46:33;;;;;;;7.40;2.87;;;;;;;12.08;50.99;98438.44;7081602;27;20223;-82
2023/03/18 06:49:55;;;;;;;3.97;2.83;;;;;;;12.27;50.60;98440.13;7091355;27;20271;-82
2023/03/18 06:53:17;;;;;;;2.90;2.60;;;;;;;12.66;49.92;98440.50;7079881;27;20231;-80
2023/03/18 06:56:40;;;;;;;6.03;3.50;;;;;;;12.57;49.40;98438.34;7080512;28;20232;-81
2023/03/18 07:00:04;;;;;;;4.53;3.20;;;;;;;12.98;48.97;98443.88;7080040;28;20212;-78
2023/03/18 07:03:27;;;;;;;3.47;2.70;;;;;;;13.26;48.59;98446.78;7079226;28;20223;-77
2023/03/18 07:06:48;;;;;;;3.17;2.83;;;;;;;13.63;47.03;98449.09;7079854;28;20595;-78
2023/03/18 07:10:19;;;;;;;5.87;4.07;;;;;;;13.51;47.44;98445.56;7078866;28;20227;-78
2023/03/18 07:13:40;;;;;;;4.27;3.03;;;;;;;13.39;47.52;98430.34;7049979;28;20224;-78
2023/03/18 07:17:03;;;;;;;4.20;2.73;;;;;;;13.69;48.31;98450.88;7051023;28;20346;-79
2023/03/18 07:20:24;;;;;;;6.07;3.40;;;;;;;14.40;46.95;98439.84;7050194;28;20290;-79
2023/03/18 07:23:46;;;;;;;5.23;3.13;;;;;;;14.60;45.44;98443.84;7051318;28;20720;-79
2023/03/18 07:27:08;;;;;;;4.73;3.33;;;;;;;15.19;44.03;98443.41;7050238;28;20334;-80
2023/03/18 07:30:29;;;;;;;3.90;3.40;;;;;;;15.34;43.81;98440.97;7051728;28;20210;-79
2023/03/18 07:33:52;;;;;;;5.83;3.47;;;;;;;16.21;42.36;98444.91;7049997;28;20223;-78
2023/03/18 07:37:13;;;;;;;6.03;4.10;;;;;;;15.80;42.79;98448.84;7050831;28;20251;-79
2023/03/18 07:40:35;;;;;;;9.43;6.30;;;;;;;16.28;42.31;98453.69;7049799;28;20210;-79
2023/03/18 07:43:57;;;;;;;7.83;4.53;;;;;;;15.56;43.40;98457.38;7050142;28;20206;-78
2023/03/18 07:47:19;;;;;;;7.13;5.47;;;;;;;16.48;42.08;98430.34;7069331;28;20588;-79
2023/03/18 07:50:42;;;;;;;6.70;4.53;;;;;;;17.14;41.14;98442.88;7064513;27;20322;-79
2023/03/18 07:54:04;;;;;;;6.90;4.83;;;;;;;17.70;41.20;98434.22;7106809;27;20214;-78
2023/03/18 07:57:25;;;;;;;7.27;4.63;;;;;;;17.82;40.53;98448.50;7081111;27;20210;-78
2023/03/18 08:00:48;;;;;;;7.33;4.87;;;;;;;18.32;39.47;98447.00;7049570;28;20228;-78
2023/03/18 08:04:09;;;;;;;6.30;3.80;;;;;;;18.98;38.29;98451.72;7052080;28;20349;-79
2023/03/18 08:07:33;;;;;;;5.07;4.07;;;;;;;19.43;37.07;98456.53;7053977;28;20209;-78
2023/03/18 08:10:57;;;;;;;4.70;3.63;;;;;;;19.52;36.28;98450.28;7054327;28;20361;-79
2023/03/18 08:14:19;;;;;;;6.13;4.13;;;;;;;19.66;36.72;98456.03;7054820;28;20241;-78
2023/03/18 08:17:40;;;;;;;3.90;3.37;;;;;;;20.32;36.17;98442.13;7055301;28;20206;-78
2023/03/18 08:21:02;;;;;;;6.50;3.80;;;;;;;20.32;36.13;98447.59;7053845;28;20225;-79
2023/03/18 08:24:25;;;;;;;5.60;3.60;;;;;;;20.88;35.57;98442.81;7055027;28;20253;-79
2023/03/18 08:27:46;;;;;;;3.83;3.17;;;;;;;20.91;35.16;98450.47;7056838;28;20210;-79
2023/03/18 08:31:08;;;;;;;5.13;3.30;;;;;;;21.41;33.33;98451.06;7059931;28;20268;-80
2023/03/18 08:34:29;;;;;;;3.90;2.97;;;;;;;21.24;32.32;98445.16;7056023;28;20222;-79
2023/03/18 08:37:51;;;;;;;3.43;2.23;;;;;;;21.36;30.34;98449.19;7054492;28;20230;-79
2023/03/18 08:41:15;;;;;;;4.30;2.43;;;;;;;21.43;29.04;98446.94;7066551;27;20231;-79
2023/03/18 08:44:39;;;;;;;3.70;1.90;;;;;;;22.20;28.20;98446.13;7053895;28;20284;-79
2023/03/18 08:48:00;;;;;;;4.13;2.00;;;;;;;20.76;28.37;98454.06;7053986;28;20201;-79
2023/03/18 08:51:22;;;;;;;3.60;2.20;;;;;;;21.19;29.16;98432.25;7052346;28;20701;-79
2023/03/18 08:54:43;;;;;;;2.50;2.27;;;;;;;21.89;28.34;98439.28;7054033;28;20669;-79
2023/03/18 08:58:07;;;;;;;2.57;2.30;;;;;;;22.05;28.71;98438.84;7054101;28;20213;-79
2023/03/18 09:01:29;;;;;;;3.47;1.90;;;;;;;22.35;27.42;98429.50;7060763;28;20283;-79
2023/03/18 09:04:50;;;;;;;2.80;2.20;;;;;;;22.58;27.89;98429.56;7058540;28;20606;-79
2023/03/18 09:08:12;;;;;;;3.93;2.67;;;;;;;21.33;29.88;98433.31;7053554;28;20592;-79
2023/03/18 09:11:33;;;;;;;2.93;2.40;;;;;;;21.78;29.71;98413.81;7052707;28;20230;-81
2023/03/18 09:14:56;;;;;;;3.57;2.60;;;;;;;22.67;28.52;98422.31;7051613;28;20238;-79
2023/03/18 09:18:19;;;;;;;4.27;2.83;;;;;;;22.84;28.32;98428.16;7052951;28;20228;-79
2023/03/18 09:21:40;;;;;;;5.33;2.53;;;;;;;21.78;28.93;98418.50;7052611;28;20222;-79
2023/03/18 09:25:02;;;;;;;4.93;2.50;;;;;;;21.48;29.94;98429.66;7053372;28;20725;-78
2023/03/18 09:28:23;;;;;;;6.03;3.57;;;;;;;22.63;28.85;98424.03;7053137;28;20541;-79
2023/03/18 09:31:46;;;;;;;4.57;2.40;;;;;;;22.56;27.47;98423.56;7052571;28;20728;-79
2023/03/18 09:35:09;;;;;;;2.80;2.37;;;;;;;22.51;27.64;98417.28;7052500;28;20232;-79
2023/03/18 09:38:31;;;;;;;2.77;1.97;;;;;;;23.93;25.34;98404.94;7052494;28;20244;-79
2023/03/18 09:42:04;;;;;;;6.10;2.10;;;;;;;21.71;25.47;98383.13;7051789;28;20358;-79
2023/03/18 09:45:29;;;;;;;2.63;2.00;;;;;;;22.45;25.91;98404.72;7052738;28;20247;-79
2023/03/18 09:49:13;;;;;;;3.77;2.10;;;;;;;23.49;24.76;98410.03;7052747;28;20723;-79
2023/03/18 09:52:39;;;;;;;4.33;2.30;;;;;;;23.14;25.56;98405.00;7049120;28;20241;-79
2023/03/18 09:56:02;;;;;;;2.53;1.60;;;;;;;22.98;24.01;98407.13;7052235;28;20208;-79
2023/03/18 09:59:26;;;;;;;2.57;1.80;;;;;;;22.38;25.02;98404.22;7052699;28;20615;-79
2023/03/18 10:02:50;;;;;;;3.00;1.90;;;;;;;22.51;24.34;98414.53;7051769;28;20254;-79
2023/03/18 10:06:16;;;;;;;4.17;1.80;;;;;;;23.14;24.25;98414.03;7052392;28;20294;-79
2023/03/18 10:09:40;;;;;;;2.50;1.90;;;;;;;24.23;23.38;98397.00;7051642;28;20200;-79
2023/03/18 10:13:07;;;;;;;5.20;2.00;;;;;;;24.80;23.60;98401.16;7052030;28;20230;-79
2023/03/18 10:16:31;;;;;;;3.07;1.93;;;;;;;23.59;23.85;98388.66;7052247;28;20198;-79
2023/03/18 10:19:54;;;;;;;2.30;1.97;;;;;;;23.87;23.52;98382.19;7051059;28;20240;-79
2023/03/18 10:23:24;;;;;;;3.63;1.87;;;;;;;23.92;23.46;98379.38;7051372;28;20227;-79
2023/03/18 10:26:49;;;;;;;1.80;1.70;;;;;;;24.88;22.92;98373.69;7050717;28;20197;-79
2023/03/18 10:30:21;;;;;;;2.10;1.90;;;;;;;25.32;22.15;98365.56;7050302;28;20249;-79
2023/03/18 10:33:46;;;;;;;2.57;2.10;;;;;;;22.18;25.16;98385.19;7051634;28;20228;-78
2023/03/18 10:37:18;;;;;;;3.80;1.97;;;;;;;24.29;23.12;98362.72;7052043;28;20711;-79
2023/03/18 10:40:41;;;;;;;1.60;1.47;;;;;;;25.03;22.52;98370.63;7059400;27;20682;-79
2023/03/18 10:44:06;;;;;;;2.57;1.80;;;;;;;24.31;23.23;98359.66;7079796;27;20203;-79
2023/03/18 10:47:28;;;;;;;2.80;1.93;;;;;;;24.64;22.18;98362.06;7079811;27;20619;-78
2023/03/18 10:50:56;;;;;;;1.93;1.70;;;;;;;23.18;23.54;98368.38;7073021;27;20392;-78
2023/03/18 10:54:23;;;;;;;2.20;1.80;;;;;;;23.04;23.91;98337.19;7079522;28;20211;-78
2023/03/18 10:57:45;;;;;;;4.83;1.80;;;;;;;24.31;22.38;98343.94;7079057;28;20191;-78
2023/03/18 11:01:09;;;;;;;3.13;2.00;;;;;;;24.86;21.83;98344.78;7078662;28;20219;-78
2023/03/18 11:04:36;;;;;;;3.20;1.80;;;;;;;24.50;21.61;98360.38;7060332;28;20215;-78
2023/03/18 11:07:59;;;;;;;1.83;1.70;;;;;;;23.87;21.97;98345.53;7052129;28;20238;-81
2023/03/18 11:11:24;;;;;;;4.10;2.00;;;;;;;24.81;21.78;98348.47;7052767;28;20686;-81
2023/03/18 11:14:49;;;;;;;3.30;1.73;;;;;;;24.96;21.55;98323.31;7061521;28;20409;-78
2023/03/18 11:18:15;;;;;;;2.03;1.77;;;;;;;25.42;21.16;98342.47;7082391;28;20687;-81
2023/03/18 11:21:37;;;;;;;2.53;1.60;;;;;;;26.01;20.53;98312.53;7082844;28;20231;-81
2023/03/18 11:25:05;;;;;;;4.17;1.70;;;;;;;25.69;20.06;98345.09;7082904;28;20208;-82
2023/03/18 11:28:28;;;;;;;3.40;2.30;;;;;;;25.80;20.70;98340.97;7081897;28;20214;-81
2023/03/18 11:31:56;;;;;;;1.90;1.77;;;;;;;25.93;20.52;98340.09;7088767;28;20594;-81
2023/03/18 11:35:20;;;;;;;3.57;1.40;;;;;;;25.85;20.47;98332.56;7087772;28;20544;-80
2023/03/18 11:38:42;;;;;;;3.33;1.70;;;;;;;25.93;20.42;98323.53;7083513;27;20230;-80
2023/03/18 11:42:17;;;;;;;2.27;1.70;;;;;;;25.88;20.36;98320.84;7057847;28;20224;-79
2023/03/18 11:45:46;;;;;;;2.43;1.90;;;;;;;26.32;19.81;98326.34;7061736;28;20198;-79
2023/03/18 11:49:13;;;;;;;3.47;2.30;;;;;;;26.39;19.90;98326.69;7059809;28;20296;-80
2023/03/18 11:52:41;;;;;;;3.27;1.70;;;;;;;25.75;20.88;98324.50;7056536;28;20847;-79
2023/03/18 11:56:08;;;;;;;5.70;1.80;;;;;;;25.08;20.41;98309.00;7058612;28;20319;-79
2023/03/18 11:59:35;;;;;;;2.57;2.07;;;;;;;25.28;21.05;98309.38;7058906;28;20509;-79
2023/03/18 12:03:27;;;;;;;2.70;1.90;;;;;;;25.04;20.31;98292.25;7061795;28;20237;-79
2023/03/18 12:07:00;;;;;;;4.23;2.23;;;;;;;25.91;20.48;98284.34;7057024;28;20200;-79
2023/03/18 12:10:25;;;;;;;2.30;1.67;;;;;;;25.99;19.37;98292.69;7079966;27;20205;-79
2023/03/18 12:13:54;;;;;;;3.37;1.50;;;;;;;25.40;19.18;98292.25;7085031;27;20216;-80
2023/03/18 12:17:25;;;;;;;2.70;1.70;;;;;;;24.97;19.47;98289.09;7083927;27;20642;-79
2023/03/18 12:20:52;;;;;;;3.27;1.90;;;;;;;25.06;20.15;98287.22;7083741;27;20227;-79
2023/03/18 12:24:42;;;;;;;1.90;1.50;;;;;;;25.57;19.77;98276.66;7082851;27;20193;-79
2023/03/18 12:28:14;;;;;;;4.87;1.90;;;;;;;25.71;20.38;98276.56;7084967;27;20191;-79
2023/03/18 12:31:48;;;;;;;2.63;1.87;;;;;;;25.71;19.69;98280.13;7084009;27;20226;-79
2023/03/18 12:35:28;;;;;;;4.53;1.90;;;;;;;25.63;19.75;98275.38;7083374;27;20227;-79
2023/03/18 12:39:01;;;;;;;2.97;1.60;;;;;;;25.27;20.45;98265.53;7083502;27;20209;-79
2023/03/18 12:42:36;;;;;;;1.70;1.60;;;;;;;25.42;20.52;98265.97;7083017;27;20261;-79
2023/03/18 12:46:00;;;;;;;4.33;1.70;;;;;;;25.64;20.17;98252.16;7083691;27;20206;-79
2023/03/18 12:49:25;;;;;;;3.00;1.70;;;;;;;25.41;19.98;98242.25;7082952;27;20210;-79
2023/03/18 12:52:50;;;;;;;5.63;1.90;;;;;;;25.49;20.27;98224.94;7077292;27;20286;-79
2023/03/18 12:56:15;;;;;;;2.43;1.80;;;;;;;25.82;19.89;98258.59;7083973;27;20248;-82
2023/03/18 12:59:41;;;;;;;3.20;1.70;;;;;;;25.64;19.63;98252.16;7083469;27;20199;-79
2023/03/18 13:03:05;;;;;;;4.80;2.10;;;;;;;26.30;19.64;98252.03;7084974;27;20222;-80
2023/03/18 13:06:30;;;;;;;4.27;1.97;;;;;;;25.81;19.66;98245.91;7084816;27;20224;-80
2023/03/18 13:09:54;;;;;;;2.20;1.70;;;;;;;25.91;19.32;98237.41;7084533;27;20211;-79
2023/03/18 13:13:16;;;;;;;2.33;1.63;;;;;;;25.78;19.64;98222.50;7079697;27;20235;-80
2023/03/18 13:16:40;;;;;;;5.43;1.70;;;;;;;25.66;19.62;98191.09;7055764;28;20268;-80
2023/03/18 13:20:03;;;;;;;3.23;1.80;;;;;;;25.84;19.07;98234.25;7059620;27;20259;-84
2023/03/18 13:23:38;;;;;;;2.97;1.60;;;;;;;25.50;19.26;98211.94;7077854;27;20303;-82
2023/03/18 13:27:39;;;;;;;2.30;1.50;;;;;;;26.13;19.71;98231.81;7093583;27;20262;-79
2023/03/18 13:31:10;;;;;;;3.13;1.83;;;;;;;26.34;18.61;98235.63;7083087;27;20697;-79
2023/03/18 13:34:55;;;;;;;3.03;1.70;;;;;;;25.86;18.99;98223.69;7081563;27;20225;-80
2023/03/18 13:38:28;;;;;;;1.87;1.30;;;;;;;25.84;19.83;98226.75;7073772;27;20287;-78
2023/03/18 13:42:02;;;;;;;5.70;1.37;;;;;;;25.35;19.88;98218.66;7081148;27;20312;-79
2023/03/18 13:45:27;;;;;;;2.93;1.57;;;;;;;25.13;19.80;98220.59;7081930;27;20200;-78
2023/03/18 13:48:54;;;;;;;3.00;1.50;;;;;;;25.74;19.29;98223.47;7080944;27;20287;-78
2023/03/18 13:52:28;;;;;;;1.83;1.53;;;;;;;25.98;19.19;98227.53;7079834;27;20238;-79
2023/03/18 13:55:54;;;;;;;2.67;1.53;;;;;;;25.55;19.16;98220.91;7077669;27;20226;-79
2023/03/18 13:59:45;;;;;;;3.30;1.77;;;;;;;25.64;19.77;98220.97;7081928;27;20288;-80
2023/03/18 14:03:16;;;;;;;1.50;1.40;;;;;;;25.13;18.17;98217.84;7084553;27;20598;-80
2023/03/18 14:06:52;;;;;;;2.60;1.40;;;;;;;25.01;18.31;98218.38;7084347;27;20349;-81
2023/03/18 14:10:19;;;;;;;1.67;1.57;;;;;;;25.58;18.71;98214.75;7083933;27;20298;-80
2023/03/18 14:13:41;;;;;;;2.03;1.70;;;;;;;25.08;18.34;98224.28;7061007;27;20231;-80
2023/03/18 14:17:04;;;;;;;1.60;1.50;;;;;;;24.90;18.96;98199.63;7055807;28;20177;-80
2023/03/18 14:20:28;;;;;;;1.40;1.30;;;;;;;24.58;19.88;98219.94;7070757;27;20299;-80
2023/03/18 14:24:03;;;;;;;2.00;1.57;;;;;;;24.11;20.05;98197.50;7083701;27;20266;-79
2023/03/18 14:27:27;;;;;;;2.40;1.50;;;;;;;24.74;19.34;98209.38;7084766;27;20631;-79
2023/03/18 14:30:57;;;;;;;1.40;1.30;;;;;;;25.06;18.95;98211.91;7081882;27;20367;-79
2023/03/18 14:34:24;;;;;;;2.73;1.60;;;;;;;25.36;18.75;98206.50;7084104;27;20304;-79
2023/03/18 14:37:59;;;;;;;2.13;1.60;;;;;;;25.11;18.64;98167.66;7085274;27;20243;-80
2023/03/18 14:41:24;;;;;;;2.03;1.60;;;;;;;25.58;18.14;98194.59;7083377;27;20779;-79
2023/03/18 14:44:50;;;;;;;1.50;1.30;;;;;;;25.06;19.08;98195.34;7085206;27;20283;-80
2023/03/18 14:48:17;;;;;;;3.50;1.60;;;;;;;24.90;19.80;98181.13;7084148;27;20264;-80
2023/03/18 14:51:39;;;;;;;5.13;1.90;;;;;;;24.91;19.12;98196.56;7084787;27;20740;-79
2023/03/18 14:55:06;;;;;;;2.23;1.70;;;;;;;25.15;19.38;98186.03;7084597;28;20752;-80
2023/03/18 14:58:28;;;;;;;2.50;1.80;;;;;;;24.70;19.44;98161.47;7084705;28;20674;-79
2023/03/18 15:01:52;;;;;;;1.90;1.70;;;;;;;24.81;19.55;98185.78;7085138;28;20372;-79
2023/03/18 15:05:17;;;;;;;2.10;1.60;;;;;;;24.80;19.90;98186.06;7085384;28;20252;-79
2023/03/18 15:08:39;;;;;;;1.80;1.70;;;;;;;24.31;20.49;98178.59;7076907;28;20215;-80
2023/03/18 15:12:16;;;;;;;5.43;1.87;;;;;;;24.45;21.29;98175.81;7059816;28;20313;-80
2023/03/18 15:15:37;;;;;;;4.87;1.97;;;;;;;24.89;20.50;98181.47;7089779;27;20307;-80
2023/03/18 15:19:00;;;;;;;1.80;1.70;;;;;;;24.48;19.84;98164.19;7092471;27;20825;-80
2023/03/18 15:22:24;;;;;;;2.10;1.87;;;;;;;25.18;19.78;98173.56;7090600;27;20227;-79
2023/03/18 15:25:48;;;;;;;3.57;2.00;;;;;;;25.03;19.84;98183.03;7091876;27;20203;-79
2023/03/18 15:29:24;;;;;;;2.57;1.90;;;;;;;25.10;20.76;98174.31;7077251;27;20236;-79
2023/03/18 15:32:48;;;;;;;2.30;2.00;;;;;;;25.24;20.00;98175.09;7092903;27;20245;-79
2023/03/18 15:36:15;;;;;;;2.70;1.90;;;;;;;25.07;20.37;98167.47;7083827;27;20220;-80
2023/03/18 15:39:38;;;;;;;3.23;2.03;;;;;;;24.94;20.19;98162.84;7097533;27;20298;-79
2023/03/18 15:43:05;;;;;;;2.73;1.73;;;;;;;24.93;20.49;98165.91;7108767;27;20273;-79
2023/03/18 15:46:29;;;;;;;2.93;1.70;;;;;;;24.97;20.55;98169.66;7091907;27;20298;-80
2023/03/18 15:49:53;;;;;;;1.97;1.80;;;;;;;24.85;20.21;98164.72;7057420;28;20249;-79
2023/03/18 15:53:21;;;;;;;3.43;1.90;;;;;;;24.70;20.33;98114.63;7056116;28;20309;-79
2023/03/18 15:56:45;;;;;;;2.67;2.07;;;;;;;24.92;20.23;98162.34;7056202;28;20228;-79
2023/03/18 16:00:09;;;;;;;4.27;2.03;;;;;;;24.83;21.56;98168.91;7055871;28;20583;-79
2023/03/18 16:03:34;;;;;;;2.63;1.50;;;;;;;24.77;20.63;98162.69;7055830;28;20230;-79